createdAt,value
2022-08-14T00:01:55.888Z,16.83
2022-08-14T00:06:59.258Z,16.71
2022-08-14T00:12:00.938Z,16.55
2022-08-14T00:17:02.807Z,16.32
2022-08-14T00:22:04.487Z,16.19
2022-08-14T00:27:07.010Z,16.10
2022-08-14T00:32:52.811Z,16.10
2022-08-14T00:37:31.976Z,16.02
2022-08-14T00:42:55.393Z,15.90
2022-08-14T00:47:55.698Z,15.67
2022-08-14T00:53:00.189Z,15.35
2022-08-14T00:58:32.678Z,15.01
2022-08-14T01:03:39.627Z,14.67
2022-08-14T01:08:51.650Z,14.37
2022-08-14T01:14:01.545Z,14.18
2022-08-14T01:19:25.226Z,14.14
2022-08-14T01:24:30.942Z,14.05
2022-08-14T01:29:58.595Z,13.93
2022-08-14T01:35:17.494Z,13.84
2022-08-14T01:40:25.425Z,13.73
2022-08-14T01:45:28.715Z,13.64
2022-08-14T01:50:33.818Z,13.64
2022-08-14T01:55:40.263Z,13.68
2022-08-14T02:00:42.131Z,13.77
2022-08-14T02:05:43.719Z,13.97
2022-08-14T02:10:46.739Z,14.15
2022-08-14T02:15:50.293Z,14.08
2022-08-14T02:20:51.927Z,14.07
2022-08-14T02:26:24.330Z,14.21
2022-08-14T02:31:42.118Z,14.40
2022-08-14T02:37:03.638Z,14.64
2022-08-14T02:42:12.999Z,14.68
2022-08-14T02:47:19.076Z,14.62
2022-08-14T02:52:55.877Z,14.66
2022-08-14T02:57:43.230Z,14.63
2022-08-14T03:02:56.085Z,14.56
2022-08-14T03:08:15.161Z,14.52
2022-08-14T03:13:21.682Z,14.51
2022-08-14T03:18:31.597Z,14.41
2022-08-14T03:23:37.742Z,14.25
2022-08-14T03:28:43.594Z,13.96
2022-08-14T03:33:45.289Z,13.66
2022-08-14T03:39:15.244Z,13.44
2022-08-14T03:45:26.345Z,13.27
2022-08-14T03:49:42.570Z,13.16
2022-08-14T03:54:46.618Z,13.02
2022-08-14T03:59:54.290Z,12.86
2022-08-14T04:04:55.879Z,12.71
2022-08-14T04:10:10.065Z,12.62
2022-08-14T04:15:11.698Z,12.55
2022-08-14T04:20:13.358Z,12.53
2022-08-14T04:25:27.840Z,12.56
2022-08-14T04:30:32.732Z,12.58
2022-08-14T04:35:55.493Z,12.62
2022-08-14T04:41:15.930Z,12.75
2022-08-14T04:46:55.772Z,13.04
2022-08-14T04:51:46.920Z,13.52
2022-08-14T04:56:57.874Z,14.07
2022-08-14T05:02:01.564Z,14.69
2022-08-14T05:07:04.152Z,15.26
2022-08-14T05:13:11.017Z,15.72
2022-08-14T05:17:43.961Z,15.91
2022-08-14T05:22:56.033Z,16.16
2022-08-14T05:28:00.163Z,16.51
2022-08-14T05:33:07.534Z,16.79
2022-08-14T05:38:22.455Z,17.27
2022-08-14T05:43:41.270Z,17.79
2022-08-14T05:48:47.762Z,18.46
2022-08-14T05:54:00.230Z,18.93
2022-08-14T05:59:12.286Z,19.56
2022-08-14T06:04:13.854Z,19.91
2022-08-14T06:09:17.380Z,20.43
2022-08-14T06:14:21.502Z,20.55
2022-08-14T06:19:25.449Z,20.76
2022-08-14T06:24:30.230Z,20.76
2022-08-14T06:29:37.574Z,20.78
2022-08-14T06:35:04.069Z,21.30
2022-08-14T06:40:01.482Z,21.55
2022-08-14T06:45:08.016Z,21.34
2022-08-14T06:50:12.689Z,21.26
2022-08-14T06:55:19.301Z,21.23
2022-08-14T07:00:31.157Z,21.37
2022-08-14T07:05:55.664Z,21.72
2022-08-14T07:11:01.542Z,22.07
2022-08-14T07:16:05.471Z,22.35
2022-08-14T07:21:09.380Z,22.50
2022-08-14T07:26:13.153Z,22.62
2022-08-14T07:31:16.306Z,22.82
2022-08-14T07:36:26.984Z,23.11
2022-08-14T07:41:35.630Z,23.42
2022-08-14T07:46:38.009Z,23.60
2022-08-14T07:51:42.030Z,23.68
2022-08-14T07:56:48.809Z,23.98
2022-08-14T08:01:53.275Z,24.34
2022-08-14T08:07:00.736Z,24.66
2022-08-14T08:12:05.092Z,24.90
2022-08-14T08:17:11.413Z,25.16
2022-08-14T08:22:13.089Z,25.46
2022-08-14T08:27:17.228Z,25.69
2022-08-14T08:32:19.098Z,25.99
2022-08-14T08:37:21.015Z,26.18
2022-08-14T08:42:31.682Z,26.39
2022-08-14T08:47:40.947Z,26.47
2022-08-14T08:52:53.700Z,26.71
2022-08-14T08:58:00.800Z,26.91
2022-08-14T09:03:11.065Z,27.36
2022-08-14T09:08:30.560Z,27.59
2022-08-14T09:13:33.567Z,27.97
2022-08-14T09:18:35.976Z,28.34
2022-08-14T09:24:26.730Z,28.46
2022-08-14T09:28:59.779Z,28.62
2022-08-14T09:34:27.215Z,29.02
2022-08-14T09:39:48.983Z,29.39
2022-08-14T09:45:07.862Z,29.56
2022-08-14T09:50:16.185Z,29.49
2022-08-14T09:55:23.814Z,29.37
2022-08-14T10:00:42.354Z,29.64
2022-08-14T10:05:44.182Z,29.84
2022-08-14T10:10:45.879Z,29.91
2022-08-14T10:16:00.191Z,29.98
2022-08-14T10:21:02.780Z,30.18
2022-08-14T10:26:22.782Z,30.22
2022-08-14T10:31:44.476Z,30.37
2022-08-14T10:37:02.256Z,30.12
2022-08-14T10:42:18.075Z,30.10
2022-08-14T10:47:41.209Z,30.13
2022-08-14T10:52:43.289Z,30.08
2022-08-14T10:57:50.036Z,30.13
2022-08-14T11:03:02.087Z,30.33
2022-08-14T11:08:12.810Z,30.39
2022-08-14T11:31:24.124Z,30.59
2022-08-14T11:42:56.141Z,30.77
2022-08-14T11:48:12.780Z,30.87
2022-08-14T11:53:31.412Z,30.91
2022-08-14T11:58:35.766Z,30.97
2022-08-14T12:03:52.218Z,30.95
2022-08-14T12:09:00.061Z,31.00
2022-08-14T12:14:13.305Z,31.36
2022-08-14T12:19:33.511Z,31.46
2022-08-14T12:24:40.184Z,31.48
2022-08-14T12:29:53.511Z,31.57
2022-08-14T12:34:55.353Z,31.78
2022-08-14T12:40:20.662Z,31.91
2022-08-14T12:45:31.935Z,31.70
2022-08-14T12:50:42.007Z,31.68
2022-08-14T12:56:22.545Z,31.77
2022-08-14T13:01:16.948Z,31.90
2022-08-14T13:06:24.539Z,32.04
2022-08-14T13:11:31.208Z,32.31
2022-08-14T13:16:38.831Z,32.31
2022-08-14T13:22:05.427Z,32.49
2022-08-14T13:27:06.266Z,32.77
2022-08-14T13:32:12.915Z,32.92
2022-08-14T13:37:17.287Z,33.10
2022-08-14T13:42:23.105Z,33.16
2022-08-14T13:47:30.333Z,32.91
2022-08-14T13:52:59.569Z,32.90
2022-08-14T13:58:05.048Z,33.05
2022-08-14T14:03:08.736Z,33.35
2022-08-14T14:08:18.457Z,33.85
2022-08-14T14:13:22.135Z,34.11
2022-08-14T14:18:34.496Z,33.95
2022-08-14T14:23:37.961Z,33.73
2022-08-14T14:28:41.693Z,33.48
2022-08-14T14:33:48.657Z,33.47
2022-08-14T14:38:54.254Z,33.42
2022-08-14T14:43:58.858Z,33.42
2022-08-14T14:49:01.614Z,33.38
2022-08-14T14:54:06.815Z,33.38
2022-08-14T14:59:11.461Z,33.46
2022-08-14T15:10:28.299Z,33.55
2022-08-14T15:15:37.344Z,33.74
2022-08-14T15:20:39.576Z,33.84
2022-08-14T15:25:53.175Z,33.84
2022-08-14T15:30:59.201Z,33.85
2022-08-14T15:36:01.639Z,33.73
2022-08-14T15:41:08.542Z,33.64
2022-08-14T15:46:10.411Z,33.52
2022-08-14T15:51:32.083Z,33.29
2022-08-14T15:56:43.281Z,33.21
2022-08-14T16:01:54.119Z,33.01
2022-08-14T16:06:56.397Z,32.82
2022-08-14T16:11:58.168Z,32.64
2022-08-14T16:17:03.177Z,32.61
2022-08-14T16:22:58.294Z,32.59
2022-08-14T16:27:37.167Z,32.48
2022-08-14T16:32:54.809Z,32.35
2022-08-14T16:37:59.040Z,32.11
2022-08-14T16:43:25.901Z,31.89
2022-08-14T16:48:57.287Z,31.59
2022-08-14T16:53:52.111Z,31.28
2022-08-14T16:59:15.128Z,31.03
2022-08-14T17:04:25.314Z,30.84
2022-08-14T17:09:33.688Z,30.63
2022-08-14T17:14:50.744Z,30.46
2022-08-14T17:20:08.866Z,30.22
2022-08-14T17:25:31.334Z,29.85
2022-08-14T17:30:53.711Z,29.53
2022-08-14T17:36:21.153Z,29.15
2022-08-14T17:41:32.969Z,28.86
2022-08-14T17:46:43.330Z,28.65
2022-08-14T17:52:16.656Z,28.39
2022-08-14T17:57:23.157Z,28.18
2022-08-14T18:02:31.106Z,27.96
2022-08-14T18:07:50.563Z,27.68
2022-08-14T18:12:57.006Z,27.44
2022-08-14T18:18:00.432Z,27.18
2022-08-14T18:23:04.647Z,26.88
2022-08-14T18:28:15.980Z,26.59
2022-08-14T18:33:22.580Z,26.34
2022-08-14T18:38:55.402Z,26.14
2022-08-14T18:43:59.054Z,25.94
2022-08-14T18:49:15.210Z,25.76
2022-08-14T18:54:37.460Z,25.55
2022-08-14T18:59:42.343Z,25.37
2022-08-14T19:04:44.858Z,25.18
2022-08-14T19:09:53.790Z,25.00
2022-08-14T19:15:08.133Z,24.83
2022-08-14T19:20:11.405Z,24.71
2022-08-14T19:25:48.068Z,24.63
2022-08-14T19:31:55.340Z,24.62
2022-08-14T19:37:05.765Z,24.58
2022-08-14T19:42:08.654Z,24.54
2022-08-14T19:47:13.081Z,24.55
2022-08-14T19:52:39.515Z,24.51
2022-08-14T19:57:41.976Z,24.48
2022-08-14T20:03:10.926Z,24.45
2022-08-14T20:11:01.258Z,24.41
2022-08-14T20:13:38.706Z,24.35
2022-08-14T20:18:51.646Z,24.31
2022-08-14T20:24:30.729Z,24.24
2022-08-14T20:29:38.099Z,24.22
2022-08-14T20:34:51.331Z,24.18
2022-08-14T20:39:54.696Z,24.06
2022-08-14T20:45:17.962Z,23.99
2022-08-14T20:50:28.650Z,23.90
2022-08-14T20:55:37.177Z,23.85
2022-08-14T21:00:52.488Z,23.80
2022-08-14T21:06:01.570Z,23.75
2022-08-14T21:11:23.036Z,23.70
2022-08-14T21:22:26.898Z,23.71
2022-08-14T21:27:28.506Z,23.68
2022-08-14T21:32:50.680Z,23.63
2022-08-14T21:37:59.685Z,23.60
2022-08-14T21:43:04.924Z,23.59
2022-08-14T21:48:09.160Z,23.55
2022-08-14T21:53:14.423Z,23.47
2022-08-14T21:58:54.417Z,23.38
2022-08-14T22:03:44.842Z,23.29
2022-08-14T22:08:52.772Z,23.22
2022-08-14T22:13:56.265Z,23.10
2022-08-14T22:19:06.009Z,23.04
2022-08-14T22:24:25.949Z,23.01
2022-08-14T22:29:36.287Z,22.94
2022-08-14T22:34:40.955Z,22.90
2022-08-14T22:40:51.213Z,22.84
2022-08-14T22:45:07.357Z,22.79
2022-08-14T22:50:31.885Z,22.72
2022-08-14T22:55:31.372Z,22.71
2022-08-14T23:00:38.343Z,22.68
2022-08-14T23:05:52.988Z,22.63
2022-08-14T23:10:56.223Z,22.57
2022-08-14T23:15:58.539Z,22.52
2022-08-14T23:21:01.127Z,22.50
2022-08-14T23:26:47.903Z,22.48
2022-08-14T23:31:35.679Z,22.46
2022-08-14T23:36:54.058Z,22.42
2022-08-14T23:42:02.285Z,22.39
2022-08-14T23:47:10.785Z,22.36
2022-08-14T23:52:51.309Z,22.32
2022-08-14T23:57:34.986Z,22.27
